sensor_id;sensor_type;location;lat;lon;timestamp;pressure;altitude;pressure_sealevel;temperature;humidity
40245;BME280;25963;42.694;23.600;2023-06-10T00:00:41;94806.41;;;16.51;100.00
40245;BME280;25963;42.694;23.600;2023-06-10T00:03:07;94784.28;;;16.35;100.00
40245;BME280;25963;42.694;23.600;2023-06-10T00:05:34;94790.44;;;16.51;100.00
40245;BME280;25963;42.694;23.600;2023-06-10T00:08:00;94786.75;;;16.52;100.00
40245;BME280;25963;42.694;23.600;2023-06-10T00:10:27;94775.00;;;16.48;100.00
40245;BME280;25963;42.694;23.600;2023-06-10T00:12:52;94775.28;;;16.46;100.00
40245;BME280;25963;42.694;23.600;2023-06-10T00:15:18;94780.06;;;16.49;100.00
40245;BME280;25963;42.694;23.600;2023-06-10T00:17:43;94780.34;;;16.63;100.00
40245;BME280;25963;42.694;23.600;2023-06-10T00:20:10;94789.16;;;16.74;100.00
40245;BME280;25963;42.694;23.600;2023-06-10T00:22:37;94768.66;;;16.64;100.00
40245;BME280;25963;42.694;23.600;2023-06-10T00:25:05;94777.16;;;16.61;100.00
40245;BME280;25963;42.694;23.600;2023-06-10T00:27:32;94786.22;;;16.70;100.00
40245;BME280;25963;42.694;23.600;2023-06-10T00:30:04;94777.66;;;16.48;100.00
40245;BME280;25963;42.694;23.600;2023-06-10T00:32:35;94779.53;;;16.47;100.00
40245;BME280;25963;42.694;23.600;2023-06-10T00:35:01;94784.03;;;16.36;100.00
40245;BME280;25963;42.694;23.600;2023-06-10T00:37:27;94789.94;;;16.49;100.00
40245;BME280;25963;42.694;23.600;2023-06-10T00:39:54;94787.00;;;16.50;100.00
40245;BME280;25963;42.694;23.600;2023-06-10T00:42:19;94804.06;;;16.54;100.00
40245;BME280;25963;42.694;23.600;2023-06-10T00:44:45;94783.00;;;16.42;100.00
40245;BME280;25963;42.694;23.600;2023-06-10T00:47:10;94785.88;;;16.31;100.00
40245;BME280;25963;42.694;23.600;2023-06-10T00:49:45;94780.28;;;16.27;100.00
40245;BME280;25963;42.694;23.600;2023-06-10T00:52:14;94819.75;;;16.56;100.00
40245;BME280;25963;42.694;23.600;2023-06-10T00:54:42;94808.56;;;16.49;100.00
40245;BME280;25963;42.694;23.600;2023-06-10T00:57:08;94808.25;;;16.45;100.00
40245;BME280;25963;42.694;23.600;2023-06-10T00:59:34;94808.81;;;16.47;100.00
40245;BME280;25963;42.694;23.600;2023-06-10T01:01:59;94801.38;;;16.49;100.00
40245;BME280;25963;42.694;23.600;2023-06-10T01:04:26;94807.81;;;16.63;100.00
40245;BME280;25963;42.694;23.600;2023-06-10T01:07:00;94809.66;;;16.73;100.00
40245;BME280;25963;42.694;23.600;2023-06-10T01:14:45;94814.72;;;16.64;100.00
40245;BME280;25963;42.694;23.600;2023-06-10T01:17:13;94807.78;;;16.58;100.00
40245;BME280;25963;42.694;23.600;2023-06-10T01:19:41;94797.91;;;16.49;100.00
40245;BME280;25963;42.694;23.600;2023-06-10T01:22:09;94813.91;;;16.59;100.00
40245;BME280;25963;42.694;23.600;2023-06-10T01:24:36;94794.72;;;16.47;100.00
40245;BME280;25963;42.694;23.600;2023-06-10T01:27:05;94820.28;;;16.63;100.00
40245;BME280;25963;42.694;23.600;2023-06-10T01:29:54;94801.94;;;16.61;100.00
40245;BME280;25963;42.694;23.600;2023-06-10T01:32:33;94800.03;;;16.57;100.00
40245;BME280;25963;42.694;23.600;2023-06-10T01:35:01;94811.22;;;16.54;100.00
40245;BME280;25963;42.694;23.600;2023-06-10T01:37:28;94824.00;;;16.57;100.00
40245;BME280;25963;42.694;23.600;2023-06-10T01:39:57;94806.94;;;16.48;100.00
40245;BME280;25963;42.694;23.600;2023-06-10T01:42:24;94817.63;;;16.53;100.00
40245;BME280;25963;42.694;23.600;2023-06-10T01:44:50;94819.72;;;16.51;100.00
40245;BME280;25963;42.694;23.600;2023-06-10T01:47:16;94807.47;;;16.44;100.00
40245;BME280;25963;42.694;23.600;2023-06-10T01:49:42;94809.91;;;16.51;100.00
40245;BME280;25963;42.694;23.600;2023-06-10T01:52:07;94787.78;;;16.40;100.00
40245;BME280;25963;42.694;23.600;2023-06-10T01:54:33;94803.75;;;16.51;100.00
40245;BME280;25963;42.694;23.600;2023-06-10T01:57:09;94806.97;;;16.58;100.00
40245;BME280;25963;42.694;23.600;2023-06-10T01:59:35;94797.38;;;16.47;100.00
40245;BME280;25963;42.694;23.600;2023-06-10T02:02:03;94787.22;;;16.33;100.00
40245;BME280;25963;42.694;23.600;2023-06-10T02:04:28;94791.22;;;16.41;100.00
40245;BME280;25963;42.694;23.600;2023-06-10T02:07:03;94775.25;;;16.31;100.00
40245;BME280;25963;42.694;23.600;2023-06-10T02:09:30;94779.78;;;16.51;100.00
40245;BME280;25963;42.694;23.600;2023-06-10T02:11:56;94795.25;;;16.59;100.00
40245;BME280;25963;42.694;23.600;2023-06-10T02:14:21;94797.69;;;16.60;100.00
40245;BME280;25963;42.694;23.600;2023-06-10T02:16:47;94788.34;;;16.58;100.00
40245;BME280;25963;42.694;23.600;2023-06-10T02:19:13;94795.53;;;16.57;100.00
40245;BME280;25963;42.694;23.600;2023-06-10T02:21:38;94785.41;;;16.54;100.00
40245;BME280;25963;42.694;23.600;2023-06-10T02:24:04;94787.53;;;16.52;100.00
40245;BME280;25963;42.694;23.600;2023-06-10T02:26:30;94775.78;;;16.48;100.00
40245;BME280;25963;42.694;23.600;2023-06-10T02:28:57;94770.75;;;16.47;100.00
40245;BME280;25963;42.694;23.600;2023-06-10T02:31:22;94770.22;;;16.50;100.00
40245;BME280;25963;42.694;23.600;2023-06-10T02:33:49;94791.56;;;16.70;100.00
40245;BME280;25963;42.694;23.600;2023-06-10T02:36:14;94787.28;;;16.69;100.00
40245;BME280;25963;42.694;23.600;2023-06-10T02:38:41;94791.31;;;16.77;100.00
40245;BME280;25963;42.694;23.600;2023-06-10T02:41:06;94772.91;;;16.55;100.00
40245;BME280;25963;42.694;23.600;2023-06-10T02:43:31;94786.22;;;16.65;100.00
40245;BME280;25963;42.694;23.600;2023-06-10T02:45:57;94777.69;;;16.63;100.00
40245;BME280;25963;42.694;23.600;2023-06-10T02:48:27;94762.75;;;16.57;100.00
40245;BME280;25963;42.694;23.600;2023-06-10T02:50:53;94767.31;;;16.61;100.00
40245;BME280;25963;42.694;23.600;2023-06-10T02:53:18;94775.28;;;16.51;100.00
40245;BME280;25963;42.694;23.600;2023-06-10T02:55:44;94754.22;;;16.44;100.00
40245;BME280;25963;42.694;23.600;2023-06-10T02:58:09;94756.38;;;16.42;100.00
40245;BME280;25963;42.694;23.600;2023-06-10T03:00:37;94765.41;;;16.41;100.00
40245;BME280;25963;42.694;23.600;2023-06-10T03:03:06;94760.09;;;16.36;100.00
40245;BME280;25963;42.694;23.600;2023-06-10T03:05:32;94783.78;;;16.43;100.00
40245;BME280;25963;42.694;23.600;2023-06-10T03:07:58;94780.59;;;16.46;100.00
40245;BME280;25963;42.694;23.600;2023-06-10T03:10:24;94779.53;;;16.37;100.00
40245;BME280;25963;42.694;23.600;2023-06-10T03:12:49;94787.78;;;16.40;100.00
40245;BME280;25963;42.694;23.600;2023-06-10T03:15:14;94771.72;;;16.10;100.00
40245;BME280;25963;42.694;23.600;2023-06-10T03:17:41;94793.56;;;16.27;100.00
40245;BME280;25963;42.694;23.600;2023-06-10T03:20:07;94758.88;;;15.96;100.00
40245;BME280;25963;42.694;23.600;2023-06-10T03:22:35;94788.19;;;16.12;100.00
40245;BME280;25963;42.694;23.600;2023-06-10T03:25:01;94774.56;;;15.93;100.00
40245;BME280;25963;42.694;23.600;2023-06-10T03:27:27;94787.66;;;16.05;100.00
40245;BME280;25963;42.694;23.600;2023-06-10T03:29:52;94797.25;;;16.11;100.00
40245;BME280;25963;42.694;23.600;2023-06-10T03:32:17;94783.63;;;15.97;100.00
40245;BME280;25963;42.694;23.600;2023-06-10T03:34:43;94780.75;;;16.09;100.00
40245;BME280;25963;42.694;23.600;2023-06-10T03:37:10;94775.41;;;16.09;100.00
40245;BME280;25963;42.694;23.600;2023-06-10T03:39:35;94781.56;;;16.14;100.00
40245;BME280;25963;42.694;23.600;2023-06-10T03:42:01;94779.44;;;16.11;100.00
40245;BME280;25963;42.694;23.600;2023-06-10T03:44:27;94781.88;;;16.23;100.00
40245;BME280;25963;42.694;23.600;2023-06-10T03:46:53;94795.47;;;16.32;100.00
40245;BME280;25963;42.694;23.600;2023-06-10T03:49:19;94796.84;;;16.39;100.00
40245;BME280;25963;42.694;23.600;2023-06-10T03:51:44;94813.09;;;16.53;100.00
40245;BME280;25963;42.694;23.600;2023-06-10T03:54:10;94786.41;;;16.33;100.00
40245;BME280;25963;42.694;23.600;2023-06-10T03:56:36;94800.03;;;16.47;100.00
40245;BME280;25963;42.694;23.600;2023-06-10T03:59:01;94774.72;;;16.44;100.00
40245;BME280;25963;42.694;23.600;2023-06-10T04:01:27;94800.88;;;16.57;100.00
40245;BME280;25963;42.694;23.600;2023-06-10T04:06:35;94793.66;;;16.63;100.00
40245;BME280;25963;42.694;23.600;2023-06-10T04:09:10;94796.34;;;16.68;100.00
40245;BME280;25963;42.694;23.600;2023-06-10T04:11:51;94789.44;;;16.67;100.00
40245;BME280;25963;42.694;23.600;2023-06-10T04:17:21;94779.31;;;16.74;100.00
40245;BME280;25963;42.694;23.600;2023-06-10T04:20:05;94782.03;;;16.84;100.00
40245;BME280;25963;42.694;23.600;2023-06-10T04:22:32;94775.06;;;16.73;100.00
40245;BME280;25963;42.694;23.600;2023-06-10T04:24:58;94801.72;;;16.99;100.00
40245;BME280;25963;42.694;23.600;2023-06-10T04:27:26;94796.41;;;16.94;100.00
40245;BME280;25963;42.694;23.600;2023-06-10T04:29:57;94809.19;;;17.12;100.00
40245;BME280;25963;42.694;23.600;2023-06-10T04:32:26;94816.66;;;17.15;100.00
40245;BME280;25963;42.694;23.600;2023-06-10T04:34:52;94793.47;;;17.10;100.00
40245;BME280;25963;42.694;23.600;2023-06-10T04:37:17;94781.47;;;17.13;100.00
40245;BME280;25963;42.694;23.600;2023-06-10T04:39:43;94797.19;;;17.25;100.00
40245;BME280;25963;42.694;23.600;2023-06-10T04:42:12;94799.06;;;17.29;100.00
40245;BME280;25963;42.694;23.600;2023-06-10T04:44:37;94806.25;;;17.34;100.00
40245;BME280;25963;42.694;23.600;2023-06-10T04:47:15;94802.50;;;17.40;100.00
40245;BME280;25963;42.694;23.600;2023-06-10T04:49:47;94794.78;;;17.28;100.00
40245;BME280;25963;42.694;23.600;2023-06-10T04:52:13;94778.00;;;17.28;100.00
40245;BME280;25963;42.694;23.600;2023-06-10T04:54:42;94797.44;;;17.44;100.00
40245;BME280;25963;42.694;23.600;2023-06-10T04:57:31;94789.72;;;17.42;100.00
40245;BME280;25963;42.694;23.600;2023-06-10T05:00:07;94800.09;;;17.59;100.00
40245;BME280;25963;42.694;23.600;2023-06-10T05:02:36;94805.69;;;17.63;100.00
40245;BME280;25963;42.694;23.600;2023-06-10T05:05:06;94790.78;;;17.46;100.00
40245;BME280;25963;42.694;23.600;2023-06-10T05:07:41;94797.19;;;17.50;100.00
40245;BME280;25963;42.694;23.600;2023-06-10T05:10:07;94795.31;;;17.51;100.00
40245;BME280;25963;42.694;23.600;2023-06-10T05:12:42;94781.19;;;17.40;100.00
40245;BME280;25963;42.694;23.600;2023-06-10T05:15:08;94797.66;;;17.68;100.00
40245;BME280;25963;42.694;23.600;2023-06-10T05:17:33;94811.78;;;17.89;100.00
40245;BME280;25963;42.694;23.600;2023-06-10T05:20:00;94784.59;;;17.87;100.00
40245;BME280;25963;42.694;23.600;2023-06-10T05:22:26;94785.09;;;17.94;100.00
40245;BME280;25963;42.694;23.600;2023-06-10T05:24:52;94785.56;;;18.11;100.00
40245;BME280;25963;42.694;23.600;2023-06-10T05:27:28;94799.38;;;18.23;100.00
40245;BME280;25963;42.694;23.600;2023-06-10T05:30:06;94757.78;;;18.12;100.00
40245;BME280;25963;42.694;23.600;2023-06-10T05:32:34;94779.28;;;18.36;100.00
40245;BME280;25963;42.694;23.600;2023-06-10T05:35:00;94780.84;;;18.42;100.00
40245;BME280;25963;42.694;23.600;2023-06-10T05:40:22;94785.31;;;18.57;100.00
40245;BME280;25963;42.694;23.600;2023-06-10T05:42:56;94763.00;;;18.38;100.00
40245;BME280;25963;42.694;23.600;2023-06-10T05:45:22;94761.56;;;18.56;100.00
40245;BME280;25963;42.694;23.600;2023-06-10T05:47:47;94764.41;;;18.69;100.00
40245;BME280;25963;42.694;23.600;2023-06-10T05:50:34;94800.66;;;18.91;100.00
40245;BME280;25963;42.694;23.600;2023-06-10T05:53:04;94797.34;;;18.99;100.00
40245;BME280;25963;42.694;23.600;2023-06-10T05:55:36;94797.31;;;19.04;100.00
40245;BME280;25963;42.694;23.600;2023-06-10T05:58:04;94793.53;;;19.10;100.00
40245;BME280;25963;42.694;23.600;2023-06-10T06:00:40;94795.13;;;19.11;100.00
40245;BME280;25963;42.694;23.600;2023-06-10T06:05:58;94827.94;;;19.56;100.00
40245;BME280;25963;42.694;23.600;2023-06-10T06:08:26;94825.72;;;19.64;100.00
40245;BME280;25963;42.694;23.600;2023-06-10T06:11:10;94811.50;;;19.68;100.00
40245;BME280;25963;42.694;23.600;2023-06-10T06:13:39;94818.72;;;19.68;100.00
40245;BME280;25963;42.694;23.600;2023-06-10T06:16:22;94792.69;;;19.78;100.00
40245;BME280;25963;42.694;23.600;2023-06-10T06:18:50;94773.28;;;19.63;100.00
40245;BME280;25963;42.694;23.600;2023-06-10T06:21:15;94795.81;;;19.86;100.00
40245;BME280;25963;42.694;23.600;2023-06-10T06:23:41;94806.91;;;19.98;100.00
40245;BME280;25963;42.694;23.600;2023-06-10T06:26:12;94790.09;;;19.92;100.00
40245;BME280;25963;42.694;23.600;2023-06-10T06:28:44;94783.91;;;19.97;100.00
40245;BME280;25963;42.694;23.600;2023-06-10T06:31:18;94777.56;;;20.12;100.00
40245;BME280;25963;42.694;23.600;2023-06-10T06:33:44;94791.06;;;20.25;100.00
40245;BME280;25963;42.694;23.600;2023-06-10T06:36:25;94785.88;;;20.34;100.00
40245;BME280;25963;42.694;23.600;2023-06-10T06:38:51;94801.13;;;20.58;100.00
40245;BME280;25963;42.694;23.600;2023-06-10T06:41:27;94792.00;;;20.59;100.00
40245;BME280;25963;42.694;23.600;2023-06-10T06:43:58;94788.91;;;20.70;100.00
40245;BME280;25963;42.694;23.600;2023-06-10T06:46:27;94793.44;;;20.70;100.00
40245;BME280;25963;42.694;23.600;2023-06-10T06:49:15;94810.13;;;20.86;100.00
40245;BME280;25963;42.694;23.600;2023-06-10T06:51:43;94759.28;;;20.62;100.00
40245;BME280;25963;42.694;23.600;2023-06-10T06:54:16;94782.53;;;20.85;100.00
40245;BME280;25963;42.694;23.600;2023-06-10T06:56:42;94808.66;;;21.12;100.00
40245;BME280;25963;42.694;23.600;2023-06-10T06:59:08;94794.16;;;21.13;100.00
40245;BME280;25963;42.694;23.600;2023-06-10T07:01:36;94786.81;;;21.19;100.00
40245;BME280;25963;42.694;23.600;2023-06-10T07:04:01;94795.34;;;21.40;100.00
40245;BME280;25963;42.694;23.600;2023-06-10T07:06:27;94789.75;;;21.69;100.00
40245;BME280;25963;42.694;23.600;2023-06-10T07:08:52;94804.78;;;21.98;100.00
40245;BME280;25963;42.694;23.600;2023-06-10T07:11:18;94813.38;;;22.41;100.00
40245;BME280;25963;42.694;23.600;2023-06-10T07:13:44;94805.38;;;22.64;97.31
40245;BME280;25963;42.694;23.600;2023-06-10T07:16:09;94813.28;;;22.96;93.34
40245;BME280;25963;42.694;23.600;2023-06-10T07:18:35;94790.38;;;22.99;93.78
40245;BME280;25963;42.694;23.600;2023-06-10T07:21:00;94798.25;;;23.18;93.12
40245;BME280;25963;42.694;23.600;2023-06-10T07:23:25;94786.78;;;23.04;88.25
40245;BME280;25963;42.694;23.600;2023-06-10T07:25:51;94799.44;;;23.26;88.06
40245;BME280;25963;42.694;23.600;2023-06-10T07:28:16;94808.78;;;23.28;88.80
40245;BME280;25963;42.694;23.600;2023-06-10T07:30:49;94809.25;;;23.53;93.86
40245;BME280;25963;42.694;23.600;2023-06-10T07:33:15;94802.72;;;23.45;94.88
40245;BME280;25963;42.694;23.600;2023-06-10T07:35:41;94805.28;;;23.50;93.82
40245;BME280;25963;42.694;23.600;2023-06-10T07:38:08;94793.72;;;23.50;95.15
40245;BME280;25963;42.694;23.600;2023-06-10T07:40:33;94800.88;;;23.54;89.06
40245;BME280;25963;42.694;23.600;2023-06-10T07:42:59;94784.53;;;23.51;85.10
40245;BME280;25963;42.694;23.600;2023-06-10T07:45:24;94781.56;;;23.52;91.04
40245;BME280;25963;42.694;23.600;2023-06-10T07:47:50;94784.13;;;23.57;93.32
40245;BME280;25963;42.694;23.600;2023-06-10T07:50:16;94766.47;;;23.42;87.93
40245;BME280;25963;42.694;23.600;2023-06-10T07:52:41;94776.16;;;23.52;90.52
40245;BME280;25963;42.694;23.600;2023-06-10T07:55:07;94783.13;;;23.53;89.40
40245;BME280;25963;42.694;23.600;2023-06-10T07:57:48;94794.75;;;23.62;89.54
40245;BME280;25963;42.694;23.600;2023-06-10T08:00:13;94777.31;;;23.60;85.34
40245;BME280;25963;42.694;23.600;2023-06-10T08:02:39;94785.25;;;23.65;91.05
40245;BME280;25963;42.694;23.600;2023-06-10T08:05:05;94796.66;;;23.93;91.41
40245;BME280;25963;42.694;23.600;2023-06-10T08:07:31;94780.09;;;24.08;88.70
40245;BME280;25963;42.694;23.600;2023-06-10T08:10:05;94778.94;;;24.01;80.24
40245;BME280;25963;42.694;23.600;2023-06-10T08:12:51;94792.84;;;24.34;80.54
40245;BME280;25963;42.694;23.600;2023-06-10T08:15:35;94754.78;;;24.27;74.15
40245;BME280;25963;42.694;23.600;2023-06-10T08:18:00;94776.31;;;24.84;82.74
40245;BME280;25963;42.694;23.600;2023-06-10T08:20:26;94769.66;;;24.99;74.17
40245;BME280;25963;42.694;23.600;2023-06-10T08:23:16;94726.59;;;25.46;71.45
40245;BME280;25963;42.694;23.600;2023-06-10T08:25:44;94729.78;;;25.78;71.90
40245;BME280;25963;42.694;23.600;2023-06-10T08:28:13;94736.94;;;26.50;75.75
40245;BME280;25963;42.694;23.600;2023-06-10T08:30:47;94737.16;;;26.66;63.66
40245;BME280;25963;42.694;23.600;2023-06-10T08:33:13;94751.78;;;27.28;78.39
40245;BME280;25963;42.694;23.600;2023-06-10T08:35:38;94743.22;;;27.71;60.71
40245;BME280;25963;42.694;23.600;2023-06-10T08:38:04;94748.13;;;28.15;60.05
40245;BME280;25963;42.694;23.600;2023-06-10T08:40:30;94731.53;;;28.41;57.12
40245;BME280;25963;42.694;23.600;2023-06-10T08:43:10;94755.59;;;28.95;58.46
40245;BME280;25963;42.694;23.600;2023-06-10T08:45:42;94744.81;;;28.71;56.11
40245;BME280;25963;42.694;23.600;2023-06-10T08:48:09;94730.28;;;28.63;52.84
40245;BME280;25963;42.694;23.600;2023-06-10T08:50:37;94731.53;;;28.41;49.84
40245;BME280;25963;42.694;23.600;2023-06-10T08:53:05;94747.31;;;28.39;56.89
40245;BME280;25963;42.694;23.600;2023-06-10T08:55:42;94730.38;;;28.17;54.96
40245;BME280;25963;42.694;23.600;2023-06-10T08:58:08;94729.25;;;27.82;56.16
40245;BME280;25963;42.694;23.600;2023-06-10T09:00:34;94715.06;;;27.64;54.49
40245;BME280;25963;42.694;23.600;2023-06-10T09:03:00;94743.63;;;27.82;59.83
40245;BME280;25963;42.694;23.600;2023-06-10T09:05:28;94722.41;;;27.63;55.74
40245;BME280;25963;42.694;23.600;2023-06-10T09:07:57;94737.97;;;27.42;59.78
40245;BME280;25963;42.694;23.600;2023-06-10T09:10:22;94719.34;;;27.40;58.43
40245;BME280;25963;42.694;23.600;2023-06-10T09:12:48;94716.94;;;27.26;57.27
40245;BME280;25963;42.694;23.600;2023-06-10T09:15:13;94715.91;;;27.31;56.98
40245;BME280;25963;42.694;23.600;2023-06-10T09:17:43;94729.56;;;27.68;61.31
40245;BME280;25963;42.694;23.600;2023-06-10T09:20:11;94722.50;;;28.00;56.47
40245;BME280;25963;42.694;23.600;2023-06-10T09:22:37;94702.84;;;28.28;54.50
40245;BME280;25963;42.694;23.600;2023-06-10T09:25:16;94710.50;;;28.26;52.22
40245;BME280;25963;42.694;23.600;2023-06-10T09:28:20;94678.19;;;27.59;53.31
40245;BME280;25963;42.694;23.600;2023-06-10T09:30:49;94720.56;;;28.25;54.09
40245;BME280;25963;42.694;23.600;2023-06-10T09:33:23;94670.66;;;27.89;56.88
40245;BME280;25963;42.694;23.600;2023-06-10T09:35:52;94702.25;;;28.22;48.56
40245;BME280;25963;42.694;23.600;2023-06-10T09:38:32;94680.94;;;27.96;47.57
40245;BME280;25963;42.694;23.600;2023-06-10T09:40:58;94688.59;;;27.94;47.63
40245;BME280;25963;42.694;23.600;2023-06-10T09:43:46;94687.47;;;27.95;45.29
40245;BME280;25963;42.694;23.600;2023-06-10T09:46:19;94681.91;;;28.28;43.09
40245;BME280;25963;42.694;23.600;2023-06-10T09:48:57;94677.72;;;28.55;48.21
40245;BME280;25963;42.694;23.600;2023-06-10T09:51:24;94671.53;;;28.42;49.64
40245;BME280;25963;42.694;23.600;2023-06-10T09:54:05;94663.03;;;28.32;45.68
40245;BME280;25963;42.694;23.600;2023-06-10T09:56:42;94694.91;;;28.87;47.63
40245;BME280;25963;42.694;23.600;2023-06-10T09:59:11;94672.34;;;29.11;46.33
40245;BME280;25963;42.694;23.600;2023-06-10T10:01:54;94653.50;;;29.19;40.72
40245;BME280;25963;42.694;23.600;2023-06-10T10:04:38;94660.28;;;29.41;44.33
40245;BME280;25963;42.694;23.600;2023-06-10T10:07:07;94633.75;;;29.66;42.32
40245;BME280;25963;42.694;23.600;2023-06-10T10:09:35;94657.03;;;29.51;38.42
40245;BME280;25963;42.694;23.600;2023-06-10T10:12:23;94646.50;;;29.18;39.00
40245;BME280;25963;42.694;23.600;2023-06-10T10:15:02;94676.00;;;28.91;40.34
40245;BME280;25963;42.694;23.600;2023-06-10T10:17:51;94629.47;;;28.49;43.50
40245;BME280;25963;42.694;23.600;2023-06-10T10:20:41;94648.50;;;28.64;40.15
40245;BME280;25963;42.694;23.600;2023-06-10T10:23:24;94631.91;;;27.76;42.80
40245;BME280;25963;42.694;23.600;2023-06-10T10:25:57;94653.81;;;27.71;43.05
40245;BME280;25963;42.694;23.600;2023-06-10T10:28:34;94643.84;;;27.75;44.78
40245;BME280;25963;42.694;23.600;2023-06-10T10:31:09;94633.81;;;27.76;44.45
40245;BME280;25963;42.694;23.600;2023-06-10T10:33:59;94628.41;;;28.53;46.93
40245;BME280;25963;42.694;23.600;2023-06-10T10:36:44;94634.94;;;28.64;40.81
40245;BME280;25963;42.694;23.600;2023-06-10T10:39:11;94638.31;;;28.74;43.38
40245;BME280;25963;42.694;23.600;2023-06-10T10:41:37;94631.44;;;29.36;42.64
40245;BME280;25963;42.694;23.600;2023-06-10T10:44:06;94616.72;;;29.21;43.29
40245;BME280;25963;42.694;23.600;2023-06-10T10:46:53;94642.59;;;29.47;39.71
40245;BME280;25963;42.694;23.600;2023-06-10T10:49:30;94627.31;;;28.98;39.49
40245;BME280;25963;42.694;23.600;2023-06-10T10:52:02;94638.56;;;29.56;40.30
40245;BME280;25963;42.694;23.600;2023-06-10T10:54:43;94602.97;;;29.46;38.26
40245;BME280;25963;42.694;23.600;2023-06-10T10:57:19;94641.06;;;29.49;36.60
40245;BME280;25963;42.694;23.600;2023-06-10T11:02:42;94612.97;;;28.29;40.98
40245;BME280;25963;42.694;23.600;2023-06-10T11:05:43;94628.16;;;28.06;43.54
40245;BME280;25963;42.694;23.600;2023-06-10T11:11:23;94632.34;;;27.66;43.28
40245;BME280;25963;42.694;23.600;2023-06-10T11:16:38;94621.31;;;27.84;44.59
40245;BME280;25963;42.694;23.600;2023-06-10T11:19:03;94616.22;;;28.07;44.73
40245;BME280;25963;42.694;23.600;2023-06-10T11:21:29;94598.16;;;27.86;44.71
40245;BME280;25963;42.694;23.600;2023-06-10T11:23:58;94610.25;;;27.89;44.58
40245;BME280;25963;42.694;23.600;2023-06-10T11:34:03;94599.78;;;28.28;49.05
40245;BME280;25963;42.694;23.600;2023-06-10T11:36:30;94592.28;;;28.49;45.20
40245;BME280;25963;42.694;23.600;2023-06-10T11:38:58;94566.53;;;27.90;45.61
40245;BME280;25963;42.694;23.600;2023-06-10T11:41:24;94576.25;;;27.42;48.67
40245;BME280;25963;42.694;23.600;2023-06-10T11:43:56;94583.09;;;26.70;48.58
40245;BME280;25963;42.694;23.600;2023-06-10T11:46:22;94601.50;;;26.34;51.38
40245;BME280;25963;42.694;23.600;2023-06-10T11:48:49;94563.84;;;26.29;50.02
40245;BME280;25963;42.694;23.600;2023-06-10T11:51:15;94588.50;;;26.49;49.35
40245;BME280;25963;42.694;23.600;2023-06-10T11:53:44;94586.34;;;26.42;51.25
40245;BME280;25963;42.694;23.600;2023-06-10T11:56:10;94560.13;;;26.22;54.43
40245;BME280;25963;42.694;23.600;2023-06-10T11:58:35;94571.41;;;25.73;54.17
40245;BME280;25963;42.694;23.600;2023-06-10T12:01:01;94576.94;;;25.85;53.02
40245;BME280;25963;42.694;23.600;2023-06-10T12:03:27;94568.88;;;26.60;50.37
40245;BME280;25963;42.694;23.600;2023-06-10T12:06:05;94567.50;;;27.00;47.73
40245;BME280;25963;42.694;23.600;2023-06-10T12:08:32;94559.09;;;27.26;50.71
40245;BME280;25963;42.694;23.600;2023-06-10T12:10:57;94570.44;;;27.07;47.71
40245;BME280;25963;42.694;23.600;2023-06-10T12:13:26;94571.41;;;27.36;51.03
40245;BME280;25963;42.694;23.600;2023-06-10T12:15:52;94562.00;;;27.70;46.98
40245;BME280;25963;42.694;23.600;2023-06-10T12:18:22;94560.78;;;27.92;47.71
40245;BME280;25963;42.694;23.600;2023-06-10T12:20:49;94575.34;;;27.75;43.94
40245;BME280;25963;42.694;23.600;2023-06-10T12:23:17;94563.16;;;27.57;44.82
40245;BME280;25963;42.694;23.600;2023-06-10T12:25:54;94534.06;;;27.41;43.15
40245;BME280;25963;42.694;23.600;2023-06-10T12:28:26;94558.50;;;28.06;45.55
40245;BME280;25963;42.694;23.600;2023-06-10T12:31:07;94569.91;;;27.87;43.21
40245;BME280;25963;42.694;23.600;2023-06-10T12:33:36;94553.78;;;27.17;41.31
40245;BME280;25963;42.694;23.600;2023-06-10T12:36:01;94529.66;;;26.67;41.26
40245;BME280;25963;42.694;23.600;2023-06-10T12:38:27;94567.19;;;26.68;41.79
40245;BME280;25963;42.694;23.600;2023-06-10T12:40:53;94552.13;;;26.92;42.40
40245;BME280;25963;42.694;23.600;2023-06-10T12:43:28;94558.31;;;26.80;45.03
40245;BME280;25963;42.694;23.600;2023-06-10T12:45:53;94544.31;;;27.23;42.76
40245;BME280;25963;42.694;23.600;2023-06-10T12:48:22;94544.00;;;27.49;42.84
40245;BME280;25963;42.694;23.600;2023-06-10T12:50:52;94533.88;;;27.13;42.99
40245;BME280;25963;42.694;23.600;2023-06-10T12:53:19;94544.19;;;26.62;44.16
40245;BME280;25963;42.694;23.600;2023-06-10T12:55:45;94548.91;;;26.65;44.98
40245;BME280;25963;42.694;23.600;2023-06-10T12:58:11;94550.09;;;26.76;44.67
40245;BME280;25963;42.694;23.600;2023-06-10T13:00:37;94535.06;;;26.33;46.81
40245;BME280;25963;42.694;23.600;2023-06-10T13:03:04;94545.75;;;26.51;51.82
40245;BME280;25963;42.694;23.600;2023-06-10T13:05:32;94543.38;;;26.61;48.08
40245;BME280;25963;42.694;23.600;2023-06-10T13:07:59;94558.16;;;26.64;54.21
40245;BME280;25963;42.694;23.600;2023-06-10T13:10:25;94546.44;;;26.60;54.30
40245;BME280;25963;42.694;23.600;2023-06-10T13:12:52;94566.97;;;26.40;62.24
40245;BME280;25963;42.694;23.600;2023-06-10T13:15:17;94544.66;;;26.43;63.25
40245;BME280;25963;42.694;23.600;2023-06-10T13:17:46;94560.63;;;26.57;67.94
40245;BME280;25963;42.694;23.600;2023-06-10T13:20:14;94554.75;;;26.55;68.14
40245;BME280;25963;42.694;23.600;2023-06-10T13:22:41;94564.31;;;26.52;59.98
40245;BME280;25963;42.694;23.600;2023-06-10T13:25:13;94556.34;;;26.35;60.70
40245;BME280;25963;42.694;23.600;2023-06-10T13:27:39;94570.91;;;26.42;63.03
40245;BME280;25963;42.694;23.600;2023-06-10T13:30:06;94572.72;;;26.38;70.08